Terminal Aerodrome Forecast
Issued by NWS

Home | Current Version | Previous Version | Text Only | Print | Product List | Glossary On
Versions: 1 2 3 4 5 6 7 8 9 10 11 12 13 14 15 16 17 18 19 20 21 22 23 24 25
000
FTUS43 KGRR 021100 RRA
TAFMKG
TAF
KMKG 021146Z 0212/0312 28007KT P6SM BKN250
     FM021600 26010KT P6SM BKN080
     FM030000 24004KT P6SM SCT050=

USA.gov is the U.S. government's official web portal to all federal, state and local government web resources and services.